Time;durP1;ratioP1;P1;durP2;ratioP2;P2;SDS_P1;SDS_P2;PMS_P1;PMS_P2;Temp;Humidity;BMP_temperature;BMP_pressure;BME280_temperature;BME280_humidity;BME280_pressure;Samples;Min_cycle;Max_cycle;Signal;HPM_P1;HPM_P2
2022/01/06 00:01:53;;;;;;;;;;;1.80;99.90;;;;;;5048542;28;19933;-77
2022/01/06 00:04:20;;;;;;;;;;;1.80;99.90;;;;;;5048554;28;19932;-77
2022/01/06 00:06:47;;;;;;;;;;;1.80;99.90;;;;;;5021171;28;20418;-77
2022/01/06 00:09:16;;;;;;;;;;;1.80;99.90;;;;;;5045462;28;20025;-77
2022/01/06 00:11:44;;;;;;;;;;;1.80;99.90;;;;;;5056344;28;19955;-77
2022/01/06 00:14:17;;;;;;;;;;;1.70;99.90;;;;;;5045330;28;19967;-77
2022/01/06 00:16:58;;;;;;;;;;;1.70;99.90;;;;;;5044442;28;19925;-76
2022/01/06 00:24:54;;;;;;;;;;;1.80;99.90;;;;;;5038584;28;19927;-77
2022/01/06 00:27:21;;;;;;;;;;;1.70;99.90;;;;;;5046501;28;20357;-77
2022/01/06 00:29:49;;;;;;;;;;;1.70;99.90;;;;;;5047900;28;20094;-76
2022/01/06 00:32:16;;;;;;;;;;;1.80;99.90;;;;;;5041165;28;19924;-77
2022/01/06 00:34:43;;;;;;;;;;;1.70;99.90;;;;;;5047252;28;20391;-77
2022/01/06 00:37:09;;;;;;;;;;;1.80;99.90;;;;;;5049176;28;19929;-77
2022/01/06 00:39:36;;;;;;;;;;;1.80;99.90;;;;;;5027986;28;19925;-77
2022/01/06 00:42:03;;;;;;;;;;;1.80;99.90;;;;;;5048874;28;20016;-76
2022/01/06 00:44:30;;;;;;;;;;;1.80;99.90;;;;;;5031589;28;19947;-77
2022/01/06 00:46:59;;;;;;;;;;;1.80;99.90;;;;;;5053721;28;20326;-77
2022/01/06 00:49:25;;;;;;;;;;;1.80;99.90;;;;;;5049248;28;19925;-77
2022/01/06 00:51:52;;;;;;;;;;;1.80;99.90;;;;;;5027563;28;19925;-77
2022/01/06 00:54:19;;;;;;;;;;;1.80;99.90;;;;;;5034805;28;19932;-77
2022/01/06 00:56:46;;;;;;;;;;;1.80;99.90;;;;;;5051291;28;20326;-77
2022/01/06 00:59:13;;;;;;;;;;;1.80;99.90;;;;;;5055033;28;19925;-77
2022/01/06 01:01:40;;;;;;;;;;;1.80;99.90;;;;;;5039137;28;20035;-77
2022/01/06 01:04:08;;;;;;;;;;;1.80;99.90;;;;;;5052067;28;19936;-77
2022/01/06 01:06:35;;;;;;;;;;;1.80;99.90;;;;;;5034900;28;19932;-77
2022/01/06 01:09:02;;;;;;;;;;;1.80;99.90;;;;;;5052835;28;20306;-76
2022/01/06 01:11:29;;;;;;;;;;;1.80;99.90;;;;;;5051462;28;19929;-77
2022/01/06 01:13:56;;;;;;;;;;;1.80;99.90;;;;;;5052422;28;19985;-77
2022/01/06 01:16:27;;;;;;;;;;;1.80;99.90;;;;;;5053202;28;20373;-77
2022/01/06 01:18:56;;;;;;;;;;;1.80;99.90;;;;;;5052516;28;19931;-77
2022/01/06 01:21:26;;;;;;;;;;;1.80;99.90;;;;;;5033299;28;19931;-77
2022/01/06 01:23:53;;;;;;;;;;;1.80;99.90;;;;;;5048858;28;19994;-77
2022/01/06 01:26:20;;;;;;;;;;;1.80;99.90;;;;;;5038917;28;19925;-76
2022/01/06 01:28:47;;;;;;;;;;;1.80;99.90;;;;;;5037892;28;20395;-77
2022/01/06 01:31:26;;;;;;;;;;;1.80;99.90;;;;;;5045515;28;19936;-77
2022/01/06 01:33:57;;;;;;;;;;;1.80;99.90;;;;;;5050757;28;19928;-77
2022/01/06 01:36:25;;;;;;;;;;;1.80;99.90;;;;;;5051237;28;19925;-77
2022/01/06 01:38:53;;;;;;;;;;;1.80;99.90;;;;;;5051094;28;20391;-77
2022/01/06 01:41:20;;;;;;;;;;;1.80;99.90;;;;;;5043267;28;19925;-77
2022/01/06 01:43:47;;;;;;;;;;;1.80;99.90;;;;;;5048163;28;19928;-77
2022/01/06 01:46:17;;;;;;;;;;;1.80;99.90;;;;;;5070076;28;19925;-77
2022/01/06 01:48:48;;;;;;;;;;;1.80;99.90;;;;;;5040541;28;19982;-77
2022/01/06 01:51:15;;;;;;;;;;;1.80;99.90;;;;;;5051739;28;19931;-77
2022/01/06 01:53:44;;;;;;;;;;;1.80;99.90;;;;;;5049433;28;19968;-77
2022/01/06 01:56:12;;;;;;;;;;;1.80;99.90;;;;;;5030152;28;20023;-77
2022/01/06 01:58:40;;;;;;;;;;;1.80;99.90;;;;;;5049549;28;19924;-77
2022/01/06 02:01:07;;;;;;;;;;;1.80;99.90;;;;;;5039757;28;19928;-77
2022/01/06 02:03:34;;;;;;;;;;;1.80;99.90;;;;;;5052085;28;19936;-76
2022/01/06 02:06:01;;;;;;;;;;;1.80;99.90;;;;;;5044777;28;19925;-76
2022/01/06 02:08:28;;;;;;;;;;;1.80;99.90;;;;;;5050331;28;19925;-77
2022/01/06 02:10:56;;;;;;;;;;;1.80;99.90;;;;;;5025456;28;19979;-76
2022/01/06 02:13:28;;;;;;;;;;;1.80;99.90;;;;;;5039430;28;19925;-77
2022/01/06 02:15:55;;;;;;;;;;;1.80;99.90;;;;;;5053102;28;20019;-77
2022/01/06 02:18:22;;;;;;;;;;;1.80;99.90;;;;;;5048084;28;20197;-77
2022/01/06 02:20:50;;;;;;;;;;;1.80;99.90;;;;;;5054901;28;20011;-77
2022/01/06 02:23:18;;;;;;;;;;;1.80;99.90;;;;;;5047451;28;19929;-77
2022/01/06 02:25:44;;;;;;;;;;;1.80;99.90;;;;;;5043154;28;19924;-77
2022/01/06 02:28:11;;;;;;;;;;;1.90;99.90;;;;;;5042043;28;19925;-77
2022/01/06 02:30:38;;;;;;;;;;;1.80;99.90;;;;;;5041585;28;20025;-77
2022/01/06 02:33:06;;;;;;;;;;;1.90;99.90;;;;;;5044133;28;19929;-77
2022/01/06 02:35:33;;;;;;;;;;;1.80;99.90;;;;;;5047888;28;20595;-77
2022/01/06 02:38:01;;;;;;;;;;;1.90;99.90;;;;;;5051974;28;19929;-76
2022/01/06 02:40:28;;;;;;;;;;;1.80;99.90;;;;;;5056605;28;20429;-77
2022/01/06 02:42:56;;;;;;;;;;;1.80;99.90;;;;;;5034026;28;19929;-77
2022/01/06 02:45:25;;;;;;;;;;;1.80;99.90;;;;;;5037110;28;19936;-77
2022/01/06 02:47:52;;;;;;;;;;;1.90;99.90;;;;;;5057024;28;19924;-77
2022/01/06 02:50:19;;;;;;;;;;;1.80;99.90;;;;;;5051739;28;19932;-77
2022/01/06 02:52:46;;;;;;;;;;;1.80;99.90;;;;;;5044934;28;19932;-76
2022/01/06 02:55:15;;;;;;;;;;;1.90;99.90;;;;;;5029247;28;19960;-77
2022/01/06 02:57:41;;;;;;;;;;;1.90;99.90;;;;;;5043389;28;20007;-77
2022/01/06 03:00:09;;;;;;;;;;;1.90;99.90;;;;;;5045226;28;19955;-77
2022/01/06 03:02:36;;;;;;;;;;;1.80;99.90;;;;;;5032823;28;19931;-77
2022/01/06 03:05:03;;;;;;;;;;;1.80;99.90;;;;;;5028765;28;19929;-77
2022/01/06 03:07:30;;;;;;;;;;;1.90;99.90;;;;;;5051928;28;19924;-77
2022/01/06 03:09:58;;;;;;;;;;;1.90;99.90;;;;;;5051334;28;19933;-77
2022/01/06 03:12:32;;;;;;;;;;;1.90;99.90;;;;;;5050576;28;19931;-77
2022/01/06 03:14:59;;;;;;;;;;;1.90;99.90;;;;;;5048887;28;20314;-76
2022/01/06 03:17:26;;;;;;;;;;;1.80;99.90;;;;;;5036060;28;20026;-77
2022/01/06 03:19:53;;;;;;;;;;;1.90;99.90;;;;;;5050020;28;19932;-77
2022/01/06 03:22:20;;;;;;;;;;;1.90;99.90;;;;;;5026926;28;20331;-77
2022/01/06 03:24:47;;;;;;;;;;;1.90;99.90;;;;;;5039951;28;20453;-77
2022/01/06 03:27:14;;;;;;;;;;;1.90;99.90;;;;;;5045614;28;19925;-77
2022/01/06 03:29:42;;;;;;;;;;;1.90;99.90;;;;;;5044849;28;19933;-76
2022/01/06 03:32:09;;;;;;;;;;;1.90;99.90;;;;;;5051535;28;20378;-77
2022/01/06 03:34:37;;;;;;;;;;;1.90;99.90;;;;;;5049904;28;19928;-77
2022/01/06 03:37:06;;;;;;;;;;;1.90;99.90;;;;;;5047188;28;19932;-76
2022/01/06 03:39:32;;;;;;;;;;;1.90;99.90;;;;;;5030314;28;20112;-76
2022/01/06 03:42:00;;;;;;;;;;;1.90;99.90;;;;;;5048475;28;19941;-77
2022/01/06 03:44:26;;;;;;;;;;;1.90;99.90;;;;;;5046277;28;20470;-77
2022/01/06 03:46:55;;;;;;;;;;;1.90;99.90;;;;;;5058676;28;19928;-76
2022/01/06 03:49:22;;;;;;;;;;;1.90;99.90;;;;;;5049058;28;19976;-76
2022/01/06 03:51:49;;;;;;;;;;;1.90;99.90;;;;;;5046985;28;19933;-76
2022/01/06 03:54:16;;;;;;;;;;;1.90;99.90;;;;;;5037117;28;19929;-77
2022/01/06 03:56:43;;;;;;;;;;;1.90;99.90;;;;;;5051816;28;19932;-76
2022/01/06 03:59:10;;;;;;;;;;;1.90;99.90;;;;;;5031512;28;19929;-77
2022/01/06 04:01:37;;;;;;;;;;;2.00;99.90;;;;;;5030326;28;19979;-77
2022/01/06 04:04:05;;;;;;;;;;;1.90;99.90;;;;;;5053671;28;20003;-77
2022/01/06 04:06:32;;;;;;;;;;;1.90;99.90;;;;;;5048868;28;19960;-77
2022/01/06 04:08:59;;;;;;;;;;;1.90;99.90;;;;;;5092812;23;20012;-77
2022/01/06 04:11:26;;;;;;;;;;;1.90;99.90;;;;;;5017208;28;19933;-77
2022/01/06 04:13:53;;;;;;;;;;;1.90;99.90;;;;;;5003251;28;19926;-77
2022/01/06 04:16:20;;;;;;;;;;;1.90;99.90;;;;;;5007698;28;20226;-77
2022/01/06 04:18:47;;;;;;;;;;;1.90;99.90;;;;;;5010139;28;19925;-79
2022/01/06 04:21:15;;;;;;;;;;;2.00;99.90;;;;;;4991628;28;19929;-79
2022/01/06 04:23:42;;;;;;;;;;;2.00;99.90;;;;;;5007956;28;20639;-77
2022/01/06 04:26:09;;;;;;;;;;;1.90;99.90;;;;;;4992531;28;19932;-77
2022/01/06 04:28:36;;;;;;;;;;;1.90;99.90;;;;;;5007963;28;19932;-77
2022/01/06 04:31:03;;;;;;;;;;;1.90;99.90;;;;;;5004042;28;20028;-77
2022/01/06 04:33:30;;;;;;;;;;;2.00;99.90;;;;;;5022693;28;19926;-77
2022/01/06 04:35:57;;;;;;;;;;;2.00;99.90;;;;;;4996413;28;19926;-77
2022/01/06 04:38:26;;;;;;;;;;;2.00;99.90;;;;;;5013472;28;19981;-77
2022/01/06 04:40:53;;;;;;;;;;;1.90;99.90;;;;;;5014090;28;19932;-77
2022/01/06 04:43:20;;;;;;;;;;;2.00;99.90;;;;;;4996244;28;19926;-77
2022/01/06 04:45:47;;;;;;;;;;;2.00;99.90;;;;;;4994676;28;20388;-78
2022/01/06 04:48:14;;;;;;;;;;;2.00;99.90;;;;;;4995196;28;19926;-77
2022/01/06 04:50:41;;;;;;;;;;;2.00;99.90;;;;;;5013416;28;19925;-77
2022/01/06 04:53:08;;;;;;;;;;;2.00;99.90;;;;;;5011309;28;19932;-78
2022/01/06 04:55:36;;;;;;;;;;;2.00;99.90;;;;;;4995548;28;19936;-77
2022/01/06 04:58:03;;;;;;;;;;;2.00;99.90;;;;;;5000912;28;19944;-77
2022/01/06 05:00:30;;;;;;;;;;;2.00;99.90;;;;;;4996476;28;19975;-77
2022/01/06 05:02:57;;;;;;;;;;;2.00;99.90;;;;;;5016745;28;20408;-77
2022/01/06 05:05:24;;;;;;;;;;;2.00;99.90;;;;;;4999112;28;19969;-77
2022/01/06 05:07:51;;;;;;;;;;;2.00;99.90;;;;;;5006404;28;20380;-77
2022/01/06 05:10:18;;;;;;;;;;;2.00;99.90;;;;;;5013142;28;20013;-77
2022/01/06 05:12:46;;;;;;;;;;;2.00;99.90;;;;;;5009291;28;19926;-77
2022/01/06 05:15:14;;;;;;;;;;;2.00;99.90;;;;;;5015067;28;19948;-77
2022/01/06 05:17:41;;;;;;;;;;;2.00;99.90;;;;;;5010589;28;19930;-77
2022/01/06 05:20:08;;;;;;;;;;;2.00;99.90;;;;;;5008124;28;19932;-77
2022/01/06 05:22:41;;;;;;;;;;;2.00;99.90;;;;;;4994120;28;20387;-78
2022/01/06 05:25:09;;;;;;;;;;;2.00;99.90;;;;;;4996060;28;20383;-77
2022/01/06 05:27:36;;;;;;;;;;;2.00;99.90;;;;;;5012760;28;20306;-79
2022/01/06 05:30:05;;;;;;;;;;;2.00;99.90;;;;;;5009688;28;19930;-77
2022/01/06 05:32:32;;;;;;;;;;;2.00;99.90;;;;;;4995914;28;19937;-79
2022/01/06 05:34:58;;;;;;;;;;;2.00;99.90;;;;;;5005720;28;20348;-77
2022/01/06 05:37:25;;;;;;;;;;;2.00;99.90;;;;;;5005505;28;19930;-78
2022/01/06 05:39:52;;;;;;;;;;;2.00;99.90;;;;;;5011859;28;19926;-77
2022/01/06 05:42:19;;;;;;;;;;;2.00;99.90;;;;;;5027570;28;19929;-77
2022/01/06 05:44:46;;;;;;;;;;;2.00;99.90;;;;;;4990694;28;20110;-77
2022/01/06 05:47:14;;;;;;;;;;;2.00;99.90;;;;;;4994125;28;20503;-77
2022/01/06 05:49:42;;;;;;;;;;;2.00;99.90;;;;;;5018759;28;20020;-77
2022/01/06 05:52:08;;;;;;;;;;;2.00;99.90;;;;;;4995025;28;19975;-76
2022/01/06 05:54:35;;;;;;;;;;;2.00;99.90;;;;;;4988915;28;19925;-77
2022/01/06 05:57:02;;;;;;;;;;;2.00;99.90;;;;;;5015941;28;19932;-77
2022/01/06 05:59:32;;;;;;;;;;;2.00;99.90;;;;;;4991822;28;19929;-77
2022/01/06 06:01:58;;;;;;;;;;;2.00;99.90;;;;;;4995329;28;19933;-77
2022/01/06 06:04:28;;;;;;;;;;;2.00;99.90;;;;;;5002426;28;19932;-76
2022/01/06 06:06:55;;;;;;;;;;;2.00;99.90;;;;;;5006841;28;19925;-77
2022/01/06 06:09:22;;;;;;;;;;;2.00;99.90;;;;;;4995517;28;19926;-77
2022/01/06 06:11:48;;;;;;;;;;;2.00;99.90;;;;;;5010244;28;20388;-77
2022/01/06 06:14:15;;;;;;;;;;;2.00;99.90;;;;;;5025806;28;20372;-77
2022/01/06 06:16:42;;;;;;;;;;;2.00;99.90;;;;;;4994982;28;19929;-77
2022/01/06 06:19:09;;;;;;;;;;;2.00;99.90;;;;;;5003238;28;19964;-77
2022/01/06 06:21:38;;;;;;;;;;;2.00;99.90;;;;;;5016263;28;19926;-77
2022/01/06 06:24:05;;;;;;;;;;;2.00;99.90;;;;;;4996093;28;19926;-77
2022/01/06 06:26:32;;;;;;;;;;;2.00;99.90;;;;;;4997200;28;19925;-77
2022/01/06 06:28:59;;;;;;;;;;;2.00;99.90;;;;;;5017404;28;19932;-78
2022/01/06 06:31:26;;;;;;;;;;;2.00;99.90;;;;;;5003441;28;19925;-77
2022/01/06 06:33:53;;;;;;;;;;;2.00;99.90;;;;;;4988697;28;19925;-77
2022/01/06 06:36:20;;;;;;;;;;;2.00;99.90;;;;;;5021242;28;20404;-77
2022/01/06 06:38:48;;;;;;;;;;;2.00;99.90;;;;;;5007389;28;20415;-77
2022/01/06 06:41:15;;;;;;;;;;;2.00;99.90;;;;;;5008880;28;19929;-77
2022/01/06 06:43:42;;;;;;;;;;;2.00;99.90;;;;;;5008512;28;19925;-77
2022/01/06 06:46:09;;;;;;;;;;;2.00;99.90;;;;;;5012045;28;19932;-77
2022/01/06 06:48:36;;;;;;;;;;;2.00;99.90;;;;;;4993601;28;19926;-77
2022/01/06 06:51:03;;;;;;;;;;;2.00;99.90;;;;;;4990539;28;19925;-79
2022/01/06 06:53:30;;;;;;;;;;;2.00;99.90;;;;;;5006069;28;19987;-77
2022/01/06 06:55:59;;;;;;;;;;;2.00;99.90;;;;;;4990382;28;19925;-77
2022/01/06 06:58:26;;;;;;;;;;;2.00;99.90;;;;;;5001863;28;20052;-77
2022/01/06 07:00:53;;;;;;;;;;;2.00;99.90;;;;;;5103816;22;19933;-77
2022/01/06 07:03:20;;;;;;;;;;;2.00;99.90;;;;;;5050922;28;20145;-77
2022/01/06 07:05:47;;;;;;;;;;;2.00;99.90;;;;;;5052738;28;19925;-77
2022/01/06 07:08:13;;;;;;;;;;;2.00;99.90;;;;;;5051454;28;19924;-77
2022/01/06 07:10:40;;;;;;;;;;;2.00;99.90;;;;;;5051835;28;20195;-77
2022/01/06 07:13:09;;;;;;;;;;;2.00;99.90;;;;;;5051729;28;20015;-77
2022/01/06 07:15:41;;;;;;;;;;;2.00;99.90;;;;;;5044907;28;19932;-77
2022/01/06 07:18:08;;;;;;;;;;;2.00;99.90;;;;;;5052120;28;19925;-77
2022/01/06 07:20:35;;;;;;;;;;;2.00;99.90;;;;;;5046541;28;19939;-78
2022/01/06 07:23:02;;;;;;;;;;;2.10;99.90;;;;;;5046384;28;19939;-77
2022/01/06 07:25:29;;;;;;;;;;;2.00;99.90;;;;;;5050995;28;19925;-77
2022/01/06 07:27:56;;;;;;;;;;;2.10;99.90;;;;;;5052927;28;19925;-76
2022/01/06 07:30:24;;;;;;;;;;;2.00;99.90;;;;;;5048595;28;20036;-77
2022/01/06 07:32:52;;;;;;;;;;;2.00;99.90;;;;;;5045557;28;19925;-77
2022/01/06 07:35:21;;;;;;;;;;;2.10;99.90;;;;;;5051207;28;19947;-77
2022/01/06 07:37:48;;;;;;;;;;;2.00;99.90;;;;;;5050533;28;19929;-77
2022/01/06 07:40:15;;;;;;;;;;;2.00;99.90;;;;;;5048825;28;19925;-77
2022/01/06 07:42:42;;;;;;;;;;;2.00;99.90;;;;;;5050713;28;19932;-77
2022/01/06 07:45:09;;;;;;;;;;;2.00;99.90;;;;;;5051887;28;20023;-77
2022/01/06 07:47:53;;;;;;;;;;;2.00;99.90;;;;;;5027354;28;19933;-77
2022/01/06 07:50:20;;;;;;;;;;;2.00;99.90;;;;;;5051459;28;19925;-77
2022/01/06 07:52:47;;;;;;;;;;;2.00;99.90;;;;;;5055493;28;19925;-77
2022/01/06 07:55:14;;;;;;;;;;;2.00;99.90;;;;;;5048833;28;19956;-76
2022/01/06 07:57:41;;;;;;;;;;;2.00;99.90;;;;;;5038441;28;19971;-78
2022/01/06 08:00:09;;;;;;;;;;;2.00;99.90;;;;;;5056184;28;19947;-77
2022/01/06 08:02:40;;;;;;;;;;;2.00;99.90;;;;;;5054881;28;20342;-77
2022/01/06 08:05:09;;;;;;;;;;;2.00;99.90;;;;;;5026686;28;19925;-78
2022/01/06 08:07:36;;;;;;;;;;;2.00;99.90;;;;;;5050527;28;19925;-77
2022/01/06 08:10:04;;;;;;;;;;;2.00;99.90;;;;;;5052026;28;19931;-77
2022/01/06 08:12:31;;;;;;;;;;;2.00;99.90;;;;;;5028055;28;19933;-77
2022/01/06 08:14:58;;;;;;;;;;;2.00;99.90;;;;;;5032195;28;19925;-78
2022/01/06 08:17:25;;;;;;;;;;;2.00;99.90;;;;;;5046120;28;19932;-78
2022/01/06 08:19:53;;;;;;;;;;;2.00;99.90;;;;;;5049331;28;19998;-78
2022/01/06 08:22:20;;;;;;;;;;;2.00;99.90;;;;;;5038022;28;19924;-78
2022/01/06 08:24:47;;;;;;;;;;;2.00;99.90;;;;;;5039978;28;19968;-77
2022/01/06 08:27:14;;;;;;;;;;;2.00;99.90;;;;;;5044971;28;19925;-77
2022/01/06 08:29:42;;;;;;;;;;;2.00;99.90;;;;;;5051380;28;19924;-78
2022/01/06 08:32:09;;;;;;;;;;;2.00;99.90;;;;;;5040479;28;19929;-77
2022/01/06 08:34:37;;;;;;;;;;;2.00;99.90;;;;;;5034790;28;20348;-77
2022/01/06 08:37:05;;;;;;;;;;;2.10;99.90;;;;;;5049537;28;20398;-77
2022/01/06 08:39:32;;;;;;;;;;;2.10;99.90;;;;;;5046302;28;19975;-77
2022/01/06 08:41:59;;;;;;;;;;;2.00;99.90;;;;;;5045894;28;19940;-77
2022/01/06 08:44:27;;;;;;;;;;;2.00;99.90;;;;;;5056873;28;19929;-77
2022/01/06 08:46:55;;;;;;;;;;;2.10;99.90;;;;;;5049957;28;19960;-77
2022/01/06 08:49:22;;;;;;;;;;;2.10;99.90;;;;;;5034161;28;20425;-77
2022/01/06 08:51:49;;;;;;;;;;;2.10;99.90;;;;;;5049954;28;19936;-78
2022/01/06 08:54:18;;;;;;;;;;;2.10;99.90;;;;;;5050214;28;20007;-78
2022/01/06 08:56:45;;;;;;;;;;;2.10;99.90;;;;;;5050442;28;20298;-77
2022/01/06 08:59:14;;;;;;;;;;;2.10;99.90;;;;;;5025834;28;19932;-78
2022/01/06 09:01:41;;;;;;;;;;;2.20;99.90;;;;;;5049741;28;19955;-77
2022/01/06 09:04:08;;;;;;;;;;;2.10;99.90;;;;;;5036470;28;19960;-78
2022/01/06 09:06:35;;;;;;;;;;;2.10;99.90;;;;;;5056668;28;19932;-78
2022/01/06 09:09:03;;;;;;;;;;;2.10;99.90;;;;;;5055763;28;20011;-78
2022/01/06 09:11:31;;;;;;;;;;;2.20;99.90;;;;;;5050399;28;19925;-79
2022/01/06 09:13:58;;;;;;;;;;;2.10;99.90;;;;;;5057236;28;19925;-78
2022/01/06 09:16:26;;;;;;;;;;;2.10;99.90;;;;;;5047807;28;19929;-77
2022/01/06 09:18:53;;;;;;;;;;;2.10;99.90;;;;;;5059343;28;19925;-77
2022/01/06 09:21:22;;;;;;;;;;;2.10;99.90;;;;;;5052003;28;20203;-78
2022/01/06 09:23:49;;;;;;;;;;;2.10;99.90;;;;;;5059642;28;19933;-78
2022/01/06 09:26:16;;;;;;;;;;;2.10;99.90;;;;;;5038035;28;19933;-77
2022/01/06 09:28:45;;;;;;;;;;;2.10;99.90;;;;;;5055481;28;19947;-78
2022/01/06 09:31:12;;;;;;;;;;;2.10;99.90;;;;;;5038770;28;20306;-77
2022/01/06 09:33:39;;;;;;;;;;;2.10;99.90;;;;;;5053083;28;19925;-77
2022/01/06 09:36:06;;;;;;;;;;;2.10;99.90;;;;;;5059067;28;19961;-77
2022/01/06 09:38:33;;;;;;;;;;;2.20;99.90;;;;;;5060057;28;19979;-78
2022/01/06 09:41:03;;;;;;;;;;;2.10;99.90;;;;;;5048147;28;19929;-77
2022/01/06 09:43:32;;;;;;;;;;;2.10;99.90;;;;;;5039272;28;19971;-77
2022/01/06 09:46:03;;;;;;;;;;;2.10;99.90;;;;;;5048441;28;20020;-77
2022/01/06 09:48:31;;;;;;;;;;;2.10;99.90;;;;;;5052706;28;19924;-77
2022/01/06 09:50:58;;;;;;;;;;;2.10;99.90;;;;;;5040630;28;20841;-77
2022/01/06 09:53:26;;;;;;;;;;;2.20;99.90;;;;;;5055648;28;19932;-77
2022/01/06 09:55:53;;;;;;;;;;;2.10;99.90;;;;;;5049261;28;20386;-77
2022/01/06 09:58:23;;;;;;;;;;;2.10;99.90;;;;;;5058644;28;19960;-78
2022/01/06 10:00:50;;;;;;;;;;;2.10;99.90;;;;;;5044893;28;19912;-78
2022/01/06 10:03:18;;;;;;;;;;;2.10;99.90;;;;;;5051034;28;19983;-78
2022/01/06 10:05:46;;;;;;;;;;;2.20;99.90;;;;;;5049452;28;19931;-79
2022/01/06 10:08:14;;;;;;;;;;;2.20;99.90;;;;;;5047931;28;20311;-77
2022/01/06 10:10:41;;;;;;;;;;;2.20;99.90;;;;;;5047902;28;19948;-78
2022/01/06 10:13:09;;;;;;;;;;;2.20;99.90;;;;;;5049440;28;19928;-78
2022/01/06 10:15:38;;;;;;;;;;;2.20;99.90;;;;;;5220010;22;20051;-86
2022/01/06 10:18:13;;;;;;;;;;;2.20;99.90;;;;;;5053053;28;19925;-86
2022/01/06 10:20:42;;;;;;;;;;;2.20;99.90;;;;;;5066382;28;20046;-84
2022/01/06 10:23:12;;;;;;;;;;;2.20;99.90;;;;;;5037332;28;19933;-85
2022/01/06 10:25:40;;;;;;;;;;;2.20;99.90;;;;;;5031243;28;19932;-84
2022/01/06 10:28:14;;;;;;;;;;;2.20;99.90;;;;;;5056639;28;19914;-87
2022/01/06 10:30:47;;;;;;;;;;;2.20;99.90;;;;;;5054296;28;19952;-87
2022/01/06 10:33:16;;;;;;;;;;;2.20;99.90;;;;;;5061029;28;19925;-84
2022/01/06 10:35:44;;;;;;;;;;;2.20;99.90;;;;;;5053479;28;19980;-86
2022/01/06 10:38:12;;;;;;;;;;;2.20;99.90;;;;;;5062456;28;19925;-85
2022/01/06 10:40:39;;;;;;;;;;;2.20;99.90;;;;;;5044358;28;19935;-87
2022/01/06 10:43:06;;;;;;;;;;;2.20;99.90;;;;;;5046121;28;19953;-87
2022/01/06 10:45:34;;;;;;;;;;;2.20;99.90;;;;;;5037616;28;19920;-85
2022/01/06 10:48:03;;;;;;;;;;;2.20;99.90;;;;;;5066076;28;19940;-87
2022/01/06 10:50:30;;;;;;;;;;;2.20;99.90;;;;;;5056148;28;19984;-86
2022/01/06 10:53:00;;;;;;;;;;;2.20;99.90;;;;;;5047188;28;19920;-88
2022/01/06 10:55:28;;;;;;;;;;;2.20;99.90;;;;;;5070429;28;19988;-88
2022/01/06 10:57:56;;;;;;;;;;;2.20;99.90;;;;;;5054955;28;19929;-86
2022/01/06 11:00:24;;;;;;;;;;;2.20;99.90;;;;;;5048364;28;19913;-87
2022/01/06 11:02:51;;;;;;;;;;;2.30;99.90;;;;;;5053268;28;19992;-86
2022/01/06 11:05:19;;;;;;;;;;;2.30;99.90;;;;;;5031395;28;19929;-87
2022/01/06 11:07:48;;;;;;;;;;;2.20;99.90;;;;;;5050345;28;19913;-88
2022/01/06 11:10:21;;;;;;;;;;;2.30;99.90;;;;;;5049093;28;19924;-87
2022/01/06 11:12:49;;;;;;;;;;;2.30;99.90;;;;;;5048244;28;19936;-89
2022/01/06 11:15:17;;;;;;;;;;;2.30;99.90;;;;;;5056489;28;19935;-86
2022/01/06 11:17:46;;;;;;;;;;;2.30;99.90;;;;;;5042065;28;19925;-87
2022/01/06 11:20:13;;;;;;;;;;;2.30;99.90;;;;;;5045501;28;19913;-87
2022/01/06 11:22:48;;;;;;;;;;;2.30;99.90;;;;;;5050496;28;19947;-88
2022/01/06 11:25:29;;;;;;;;;;;2.30;99.90;;;;;;5047110;28;22245;-86
2022/01/06 11:28:01;;;;;;;;;;;2.30;99.90;;;;;;5048726;28;19968;-87
2022/01/06 11:30:38;;;;;;;;;;;2.30;99.90;;;;;;5061678;28;20028;-89
2022/01/06 11:33:06;;;;;;;;;;;2.30;99.90;;;;;;5050164;28;20362;-86
2022/01/06 11:35:46;;;;;;;;;;;2.30;99.90;;;;;;5034692;28;19932;-90
2022/01/06 11:38:15;;;;;;;;;;;2.30;99.90;;;;;;5051405;28;19964;-87
2022/01/06 11:40:44;;;;;;;;;;;2.30;99.90;;;;;;5050395;28;19929;-88
2022/01/06 11:43:11;;;;;;;;;;;2.30;99.90;;;;;;5051606;28;19936;-87
2022/01/06 11:45:38;;;;;;;;;;;2.30;99.90;;;;;;5054534;28;19980;-86
2022/01/06 11:48:06;;;;;;;;;;;2.30;99.90;;;;;;5045292;28;19926;-85
2022/01/06 11:50:36;;;;;;;;;;;2.30;99.90;;;;;;5033819;28;19932;-87
2022/01/06 11:53:04;;;;;;;;;;;2.30;99.90;;;;;;5047154;28;19925;-87
2022/01/06 11:55:34;;;;;;;;;;;2.30;99.90;;;;;;5064265;28;19952;-86
2022/01/06 11:58:12;;;;;;;;;;;2.30;99.90;;;;;;5061923;28;19972;-89
2022/01/06 12:00:42;;;;;;;;;;;2.30;99.90;;;;;;5045554;28;20117;-87
2022/01/06 12:03:10;;;;;;;;;;;2.40;99.90;;;;;;5031516;28;19925;-85
2022/01/06 12:05:41;;;;;;;;;;;2.30;99.90;;;;;;5043890;28;20005;-84
2022/01/06 12:08:08;;;;;;;;;;;2.30;99.90;;;;;;5048198;28;19925;-84
2022/01/06 12:10:39;;;;;;;;;;;2.40;99.90;;;;;;5027153;28;19925;-87
2022/01/06 12:13:06;;;;;;;;;;;2.40;99.90;;;;;;5065673;28;19925;-88
2022/01/06 12:15:45;;;;;;;;;;;2.40;99.90;;;;;;5043872;28;19932;-83
2022/01/06 12:18:12;;;;;;;;;;;2.40;99.90;;;;;;5045547;28;19936;-87
2022/01/06 12:20:39;;;;;;;;;;;2.40;99.90;;;;;;5034081;28;19925;-86
2022/01/06 12:23:06;;;;;;;;;;;2.40;99.90;;;;;;5038828;28;19939;-85
2022/01/06 12:25:33;;;;;;;;;;;2.40;99.90;;;;;;5057321;28;19956;-88
2022/01/06 12:28:00;;;;;;;;;;;2.40;99.90;;;;;;5049270;28;19960;-87
2022/01/06 12:30:28;;;;;;;;;;;2.40;99.90;;;;;;5035304;28;19956;-86
2022/01/06 12:32:58;;;;;;;;;;;2.40;99.90;;;;;;5037174;28;19933;-84
2022/01/06 12:35:38;;;;;;;;;;;2.40;99.90;;;;;;5032976;28;19929;-86
2022/01/06 12:38:05;;;;;;;;;;;2.40;99.90;;;;;;5058979;28;19988;-88
2022/01/06 12:40:33;;;;;;;;;;;2.40;99.90;;;;;;5037483;28;19929;-87
2022/01/06 12:43:00;;;;;;;;;;;2.40;99.90;;;;;;5044478;28;19913;-85
2022/01/06 12:45:27;;;;;;;;;;;2.40;99.90;;;;;;5044215;28;19996;-85
2022/01/06 12:47:54;;;;;;;;;;;2.40;99.90;;;;;;5049012;28;19979;-84
2022/01/06 12:50:23;;;;;;;;;;;2.40;99.90;;;;;;5042918;28;19949;-86
2022/01/06 12:52:50;;;;;;;;;;;2.40;99.90;;;;;;5055178;28;19929;-83
2022/01/06 12:55:17;;;;;;;;;;;2.40;99.90;;;;;;5060882;28;19920;-90
2022/01/06 12:57:50;;;;;;;;;;;2.40;99.90;;;;;;5055706;28;19929;-84
2022/01/06 13:00:18;;;;;;;;;;;2.40;99.90;;;;;;5043489;28;19958;-85
2022/01/06 13:02:56;;;;;;;;;;;2.40;99.90;;;;;;5052508;28;20158;-86
2022/01/06 13:05:25;;;;;;;;;;;2.40;99.90;;;;;;5060835;28;19933;-85
2022/01/06 13:08:01;;;;;;;;;;;2.40;99.90;;;;;;5053507;28;19925;-86
2022/01/06 13:10:28;;;;;;;;;;;2.40;99.90;;;;;;5060062;28;19936;-85
2022/01/06 13:13:03;;;;;;;;;;;2.40;99.90;;;;;;5049109;28;19953;-88
2022/01/06 13:15:34;;;;;;;;;;;2.40;99.90;;;;;;5050125;28;19960;-86
2022/01/06 13:18:01;;;;;;;;;;;2.40;99.90;;;;;;5065822;28;20736;-86
2022/01/06 13:20:36;;;;;;;;;;;2.40;99.90;;;;;;5051155;28;19960;-85
2022/01/06 13:23:41;;;;;;;;;;;2.40;99.90;;;;;;5050456;28;19924;-85
2022/01/06 13:26:04;;;;;;;;;;;2.40;99.90;;;;;;5048430;28;19925;-84
2022/01/06 13:28:31;;;;;;;;;;;2.40;99.90;;;;;;5071270;28;19961;-87
2022/01/06 13:30:58;;;;;;;;;;;2.40;99.90;;;;;;5041966;28;19929;-84
2022/01/06 13:33:31;;;;;;;;;;;2.40;99.90;;;;;;5043042;28;19975;-85
2022/01/06 13:36:00;;;;;;;;;;;2.40;99.90;;;;;;5036484;28;19944;-88
2022/01/06 13:38:28;;;;;;;;;;;2.40;99.90;;;;;;5040980;28;19929;-88
2022/01/06 13:40:59;;;;;;;;;;;2.40;99.90;;;;;;5050126;28;19956;-84
2022/01/06 13:43:27;;;;;;;;;;;2.40;99.90;;;;;;5043329;28;19913;-88
2022/01/06 13:45:54;;;;;;;;;;;2.40;99.90;;;;;;5052386;28;19925;-85
2022/01/06 13:48:39;;;;;;;;;;;2.40;99.90;;;;;;5055635;28;19940;-86
2022/01/06 13:51:12;;;;;;;;;;;2.40;99.90;;;;;;5043146;28;19951;-86
2022/01/06 13:53:40;;;;;;;;;;;2.40;99.90;;;;;;5045487;28;19923;-87
2022/01/06 13:56:08;;;;;;;;;;;2.40;99.90;;;;;;5051358;28;19952;-87
2022/01/06 13:58:36;;;;;;;;;;;2.40;99.90;;;;;;5051001;28;20073;-84
2022/01/06 14:01:04;;;;;;;;;;;2.40;99.90;;;;;;5039568;28;19929;-87
2022/01/06 14:03:32;;;;;;;;;;;2.40;99.90;;;;;;5051939;28;19932;-84
2022/01/06 14:06:00;;;;;;;;;;;2.40;99.90;;;;;;5051193;28;19929;-84
2022/01/06 14:08:29;;;;;;;;;;;2.40;99.90;;;;;;5065647;28;19929;-84
2022/01/06 14:10:56;;;;;;;;;;;2.40;99.90;;;;;;5043285;28;19967;-86
2022/01/06 14:13:23;;;;;;;;;;;2.40;99.90;;;;;;5036833;28;19928;-86
2022/01/06 14:15:50;;;;;;;;;;;2.40;99.90;;;;;;5069975;28;20284;-85
2022/01/06 14:18:18;;;;;;;;;;;2.40;99.90;;;;;;5035156;28;19936;-87
2022/01/06 14:20:45;;;;;;;;;;;2.40;99.90;;;;;;5050677;28;19925;-85
2022/01/06 14:23:13;;;;;;;;;;;2.40;99.90;;;;;;5034956;28;19924;-85
2022/01/06 14:25:42;;;;;;;;;;;2.40;99.90;;;;;;5065037;28;20362;-89
2022/01/06 14:28:10;;;;;;;;;;;2.40;99.90;;;;;;5047364;28;19925;-87
2022/01/06 14:30:37;;;;;;;;;;;2.40;99.90;;;;;;5047131;28;19914;-88
2022/01/06 14:33:05;;;;;;;;;;;2.40;99.90;;;;;;5038829;28;19936;-86
2022/01/06 14:35:32;;;;;;;;;;;2.40;99.90;;;;;;5039505;28;19963;-84
2022/01/06 14:37:59;;;;;;;;;;;2.40;99.90;;;;;;5041651;28;19925;-84
2022/01/06 14:40:26;;;;;;;;;;;2.40;99.90;;;;;;5035155;28;19913;-88
2022/01/06 14:42:56;;;;;;;;;;;2.40;99.90;;;;;;5048851;28;19925;-87